sensor_id;sensor_type;location;lat;lon;timestamp;P1;durP1;ratioP1;P2;durP2;ratioP2
6145;SDS011;3104;50.348;7.620;2022-12-18T00:03:46;23.77;;;13.30;;
6145;SDS011;3104;50.348;7.620;2022-12-18T00:06:12;27.50;;;14.80;;
6145;SDS011;3104;50.348;7.620;2022-12-18T00:08:38;26.30;;;13.00;;
6145;SDS011;3104;50.348;7.620;2022-12-18T00:11:05;27.10;;;14.33;;
6145;SDS011;3104;50.348;7.620;2022-12-18T00:13:32;34.83;;;14.50;;
6145;SDS011;3104;50.348;7.620;2022-12-18T00:16:02;49.80;;;22.13;;
6145;SDS011;3104;50.348;7.620;2022-12-18T00:18:29;32.83;;;15.90;;
6145;SDS011;3104;50.348;7.620;2022-12-18T00:20:57;42.40;;;17.63;;
6145;SDS011;3104;50.348;7.620;2022-12-18T00:23:28;35.13;;;16.97;;
6145;SDS011;3104;50.348;7.620;2022-12-18T00:25:54;36.13;;;17.27;;
6145;SDS011;3104;50.348;7.620;2022-12-18T00:28:23;29.07;;;14.43;;
6145;SDS011;3104;50.348;7.620;2022-12-18T00:30:49;23.20;;;13.30;;
6145;SDS011;3104;50.348;7.620;2022-12-18T00:33:16;28.13;;;16.37;;
6145;SDS011;3104;50.348;7.620;2022-12-18T00:35:42;30.87;;;16.03;;
6145;SDS011;3104;50.348;7.620;2022-12-18T00:38:08;35.07;;;19.20;;
6145;SDS011;3104;50.348;7.620;2022-12-18T00:40:33;25.27;;;13.20;;
6145;SDS011;3104;50.348;7.620;2022-12-18T00:42:59;28.57;;;15.10;;
6145;SDS011;3104;50.348;7.620;2022-12-18T00:45:29;21.30;;;14.10;;
6145;SDS011;3104;50.348;7.620;2022-12-18T00:47:55;26.53;;;16.73;;
6145;SDS011;3104;50.348;7.620;2022-12-18T00:50:22;23.60;;;15.30;;
6145;SDS011;3104;50.348;7.620;2022-12-18T00:52:48;31.10;;;18.23;;
6145;SDS011;3104;50.348;7.620;2022-12-18T00:55:14;26.00;;;12.40;;
6145;SDS011;3104;50.348;7.620;2022-12-18T00:57:40;21.97;;;14.73;;
6145;SDS011;3104;50.348;7.620;2022-12-18T01:00:06;28.87;;;15.40;;
6145;SDS011;3104;50.348;7.620;2022-12-18T01:02:35;31.27;;;18.80;;
6145;SDS011;3104;50.348;7.620;2022-12-18T01:05:00;28.87;;;18.60;;
6145;SDS011;3104;50.348;7.620;2022-12-18T01:07:26;23.83;;;13.07;;
6145;SDS011;3104;50.348;7.620;2022-12-18T01:09:51;20.43;;;11.57;;
6145;SDS011;3104;50.348;7.620;2022-12-18T01:12:17;34.63;;;15.83;;
6145;SDS011;3104;50.348;7.620;2022-12-18T01:14:43;24.43;;;13.37;;
6145;SDS011;3104;50.348;7.620;2022-12-18T01:17:08;24.70;;;12.57;;
6145;SDS011;3104;50.348;7.620;2022-12-18T01:19:34;25.77;;;12.70;;
6145;SDS011;3104;50.348;7.620;2022-12-18T01:22:00;27.03;;;14.83;;
6145;SDS011;3104;50.348;7.620;2022-12-18T01:24:25;25.03;;;14.97;;
6145;SDS011;3104;50.348;7.620;2022-12-18T01:26:51;20.27;;;12.20;;
6145;SDS011;3104;50.348;7.620;2022-12-18T01:29:16;30.77;;;14.10;;
6145;SDS011;3104;50.348;7.620;2022-12-18T01:31:42;22.87;;;13.00;;
6145;SDS011;3104;50.348;7.620;2022-12-18T01:34:08;24.60;;;11.20;;
6145;SDS011;3104;50.348;7.620;2022-12-18T01:36:35;25.17;;;14.17;;
6145;SDS011;3104;50.348;7.620;2022-12-18T01:39:03;28.70;;;14.10;;
6145;SDS011;3104;50.348;7.620;2022-12-18T01:41:31;18.10;;;11.07;;
6145;SDS011;3104;50.348;7.620;2022-12-18T01:49:45;21.00;;;12.30;;
6145;SDS011;3104;50.348;7.620;2022-12-18T01:52:11;25.77;;;13.27;;
6145;SDS011;3104;50.348;7.620;2022-12-18T01:54:37;24.43;;;12.83;;
6145;SDS011;3104;50.348;7.620;2022-12-18T01:57:02;21.50;;;12.00;;
6145;SDS011;3104;50.348;7.620;2022-12-18T01:59:28;19.80;;;12.37;;
6145;SDS011;3104;50.348;7.620;2022-12-18T02:01:56;26.20;;;13.77;;
6145;SDS011;3104;50.348;7.620;2022-12-18T02:04:22;24.87;;;13.33;;
6145;SDS011;3104;50.348;7.620;2022-12-18T02:06:51;20.10;;;11.57;;
6145;SDS011;3104;50.348;7.620;2022-12-18T02:09:55;23.47;;;12.27;;
6145;SDS011;3104;50.348;7.620;2022-12-18T02:12:42;23.63;;;12.57;;
6145;SDS011;3104;50.348;7.620;2022-12-18T02:15:37;23.33;;;12.13;;
6145;SDS011;3104;50.348;7.620;2022-12-18T02:18:08;23.30;;;12.80;;
6145;SDS011;3104;50.348;7.620;2022-12-18T02:26:18;22.73;;;13.13;;
6145;SDS011;3104;50.348;7.620;2022-12-18T02:28:51;24.90;;;13.03;;
6145;SDS011;3104;50.348;7.620;2022-12-18T02:31:22;21.97;;;12.30;;
6145;SDS011;3104;50.348;7.620;2022-12-18T02:33:52;21.10;;;12.53;;
6145;SDS011;3104;50.348;7.620;2022-12-18T02:36:20;24.90;;;13.50;;
6145;SDS011;3104;50.348;7.620;2022-12-18T02:38:46;20.90;;;13.53;;
6145;SDS011;3104;50.348;7.620;2022-12-18T02:41:13;25.60;;;12.43;;
6145;SDS011;3104;50.348;7.620;2022-12-18T02:43:45;23.30;;;13.07;;
6145;SDS011;3104;50.348;7.620;2022-12-18T02:46:20;21.00;;;11.40;;
6145;SDS011;3104;50.348;7.620;2022-12-18T02:48:51;23.43;;;12.70;;
6145;SDS011;3104;50.348;7.620;2022-12-18T02:51:29;26.97;;;11.67;;
6145;SDS011;3104;50.348;7.620;2022-12-18T02:54:31;22.20;;;13.43;;
6145;SDS011;3104;50.348;7.620;2022-12-18T03:00:04;23.20;;;13.67;;
6145;SDS011;3104;50.348;7.620;2022-12-18T03:02:38;22.70;;;12.63;;
6145;SDS011;3104;50.348;7.620;2022-12-18T03:05:16;25.40;;;13.80;;
6145;SDS011;3104;50.348;7.620;2022-12-18T03:07:53;25.63;;;12.00;;
6145;SDS011;3104;50.348;7.620;2022-12-18T03:10:25;25.37;;;13.50;;
6145;SDS011;3104;50.348;7.620;2022-12-18T03:12:58;30.03;;;14.13;;
6145;SDS011;3104;50.348;7.620;2022-12-18T03:15:33;26.03;;;13.60;;
6145;SDS011;3104;50.348;7.620;2022-12-18T03:18:10;24.87;;;11.90;;
6145;SDS011;3104;50.348;7.620;2022-12-18T03:20:44;25.20;;;11.93;;
6145;SDS011;3104;50.348;7.620;2022-12-18T03:23:11;19.47;;;12.90;;
6145;SDS011;3104;50.348;7.620;2022-12-18T03:25:42;20.00;;;12.13;;
6145;SDS011;3104;50.348;7.620;2022-12-18T03:28:10;17.33;;;11.70;;
6145;SDS011;3104;50.348;7.620;2022-12-18T03:30:39;19.73;;;11.83;;
6145;SDS011;3104;50.348;7.620;2022-12-18T03:33:10;20.77;;;11.00;;
6145;SDS011;3104;50.348;7.620;2022-12-18T03:35:44;23.77;;;11.77;;
6145;SDS011;3104;50.348;7.620;2022-12-18T03:38:10;21.60;;;12.27;;
6145;SDS011;3104;50.348;7.620;2022-12-18T03:43:55;21.63;;;11.60;;
6145;SDS011;3104;50.348;7.620;2022-12-18T03:46:02;21.13;;;11.53;;
6145;SDS011;3104;50.348;7.620;2022-12-18T03:48:37;24.20;;;15.07;;
6145;SDS011;3104;50.348;7.620;2022-12-18T03:51:09;19.70;;;11.73;;
6145;SDS011;3104;50.348;7.620;2022-12-18T03:56:16;19.17;;;11.00;;
6145;SDS011;3104;50.348;7.620;2022-12-18T03:58:43;24.97;;;11.63;;
6145;SDS011;3104;50.348;7.620;2022-12-18T04:01:10;16.93;;;11.33;;
6145;SDS011;3104;50.348;7.620;2022-12-18T04:03:39;16.17;;;11.37;;
6145;SDS011;3104;50.348;7.620;2022-12-18T04:06:07;19.73;;;11.53;;
6145;SDS011;3104;50.348;7.620;2022-12-18T04:08:34;21.13;;;12.20;;
6145;SDS011;3104;50.348;7.620;2022-12-18T04:11:00;20.57;;;11.87;;
6145;SDS011;3104;50.348;7.620;2022-12-18T04:13:28;19.33;;;12.73;;
6145;SDS011;3104;50.348;7.620;2022-12-18T04:15:56;24.57;;;12.13;;
6145;SDS011;3104;50.348;7.620;2022-12-18T04:18:22;22.20;;;11.77;;
6145;SDS011;3104;50.348;7.620;2022-12-18T04:20:47;21.83;;;11.63;;
6145;SDS011;3104;50.348;7.620;2022-12-18T04:23:13;24.00;;;12.83;;
6145;SDS011;3104;50.348;7.620;2022-12-18T04:25:38;19.20;;;12.00;;
6145;SDS011;3104;50.348;7.620;2022-12-18T04:28:04;19.47;;;10.97;;
6145;SDS011;3104;50.348;7.620;2022-12-18T04:30:30;18.57;;;12.93;;
6145;SDS011;3104;50.348;7.620;2022-12-18T04:32:55;20.37;;;11.67;;
6145;SDS011;3104;50.348;7.620;2022-12-18T04:35:21;21.00;;;11.37;;
6145;SDS011;3104;50.348;7.620;2022-12-18T04:37:46;19.30;;;12.77;;
6145;SDS011;3104;50.348;7.620;2022-12-18T04:40:12;21.80;;;11.77;;
6145;SDS011;3104;50.348;7.620;2022-12-18T04:42:39;19.87;;;11.17;;
6145;SDS011;3104;50.348;7.620;2022-12-18T04:45:05;21.03;;;10.97;;
6145;SDS011;3104;50.348;7.620;2022-12-18T04:47:32;18.77;;;10.27;;
6145;SDS011;3104;50.348;7.620;2022-12-18T04:49:57;20.13;;;12.30;;
6145;SDS011;3104;50.348;7.620;2022-12-18T04:52:23;17.90;;;10.90;;
6145;SDS011;3104;50.348;7.620;2022-12-18T04:54:48;19.13;;;11.77;;
6145;SDS011;3104;50.348;7.620;2022-12-18T04:57:14;14.30;;;8.73;;
6145;SDS011;3104;50.348;7.620;2022-12-18T04:59:40;20.67;;;12.37;;
6145;SDS011;3104;50.348;7.620;2022-12-18T05:02:05;16.73;;;11.57;;
6145;SDS011;3104;50.348;7.620;2022-12-18T05:04:31;19.87;;;11.17;;
6145;SDS011;3104;50.348;7.620;2022-12-18T05:06:56;21.30;;;11.60;;
6145;SDS011;3104;50.348;7.620;2022-12-18T05:09:22;25.50;;;12.47;;
6145;SDS011;3104;50.348;7.620;2022-12-18T05:11:48;16.80;;;10.60;;
6145;SDS011;3104;50.348;7.620;2022-12-18T05:14:14;20.57;;;11.93;;
6145;SDS011;3104;50.348;7.620;2022-12-18T05:16:40;18.90;;;13.40;;
6145;SDS011;3104;50.348;7.620;2022-12-18T05:19:06;16.77;;;11.80;;
6145;SDS011;3104;50.348;7.620;2022-12-18T05:21:31;19.23;;;11.40;;
6145;SDS011;3104;50.348;7.620;2022-12-18T05:23:57;21.40;;;10.53;;
6145;SDS011;3104;50.348;7.620;2022-12-18T05:26:22;17.70;;;10.10;;
6145;SDS011;3104;50.348;7.620;2022-12-18T05:28:48;18.80;;;11.03;;
6145;SDS011;3104;50.348;7.620;2022-12-18T05:31:13;21.87;;;14.43;;
6145;SDS011;3104;50.348;7.620;2022-12-18T05:33:39;25.87;;;12.53;;
6145;SDS011;3104;50.348;7.620;2022-12-18T05:36:06;23.90;;;12.20;;
6145;SDS011;3104;50.348;7.620;2022-12-18T05:38:33;21.67;;;10.97;;
6145;SDS011;3104;50.348;7.620;2022-12-18T05:41:02;23.67;;;13.10;;
6145;SDS011;3104;50.348;7.620;2022-12-18T05:43:29;25.40;;;13.10;;
6145;SDS011;3104;50.348;7.620;2022-12-18T05:45:55;22.73;;;11.73;;
6145;SDS011;3104;50.348;7.620;2022-12-18T05:48:21;15.80;;;10.40;;
6145;SDS011;3104;50.348;7.620;2022-12-18T05:50:47;20.63;;;11.73;;
6145;SDS011;3104;50.348;7.620;2022-12-18T05:53:15;19.03;;;11.87;;
6145;SDS011;3104;50.348;7.620;2022-12-18T05:55:44;18.60;;;11.07;;
6145;SDS011;3104;50.348;7.620;2022-12-18T05:58:10;28.77;;;15.33;;
6145;SDS011;3104;50.348;7.620;2022-12-18T06:00:38;22.70;;;12.00;;
6145;SDS011;3104;50.348;7.620;2022-12-18T06:03:05;18.50;;;12.23;;
6145;SDS011;3104;50.348;7.620;2022-12-18T06:05:35;21.30;;;12.63;;
6145;SDS011;3104;50.348;7.620;2022-12-18T06:08:02;19.43;;;12.70;;
6145;SDS011;3104;50.348;7.620;2022-12-18T06:10:28;21.97;;;13.67;;
6145;SDS011;3104;50.348;7.620;2022-12-18T06:12:53;23.70;;;12.50;;
6145;SDS011;3104;50.348;7.620;2022-12-18T06:15:19;30.00;;;14.40;;
6145;SDS011;3104;50.348;7.620;2022-12-18T06:17:44;20.17;;;12.67;;
6145;SDS011;3104;50.348;7.620;2022-12-18T06:20:10;24.70;;;11.13;;
6145;SDS011;3104;50.348;7.620;2022-12-18T06:22:35;25.47;;;13.33;;
6145;SDS011;3104;50.348;7.620;2022-12-18T06:25:01;24.90;;;13.10;;
6145;SDS011;3104;50.348;7.620;2022-12-18T06:27:27;22.10;;;11.10;;
6145;SDS011;3104;50.348;7.620;2022-12-18T06:29:52;24.57;;;12.30;;
6145;SDS011;3104;50.348;7.620;2022-12-18T06:32:18;23.70;;;12.30;;
6145;SDS011;3104;50.348;7.620;2022-12-18T06:34:43;20.07;;;12.10;;
6145;SDS011;3104;50.348;7.620;2022-12-18T06:37:09;21.97;;;11.83;;
6145;SDS011;3104;50.348;7.620;2022-12-18T06:39:34;19.27;;;11.13;;
6145;SDS011;3104;50.348;7.620;2022-12-18T06:42:00;19.30;;;11.87;;
6145;SDS011;3104;50.348;7.620;2022-12-18T06:44:26;22.77;;;13.57;;
6145;SDS011;3104;50.348;7.620;2022-12-18T06:46:51;17.03;;;10.87;;
6145;SDS011;3104;50.348;7.620;2022-12-18T06:49:17;20.03;;;12.17;;
6145;SDS011;3104;50.348;7.620;2022-12-18T06:51:42;19.83;;;11.70;;
6145;SDS011;3104;50.348;7.620;2022-12-18T06:54:08;19.20;;;12.10;;
6145;SDS011;3104;50.348;7.620;2022-12-18T06:56:34;23.77;;;13.80;;
6145;SDS011;3104;50.348;7.620;2022-12-18T06:58:59;14.57;;;11.10;;
6145;SDS011;3104;50.348;7.620;2022-12-18T07:01:25;20.20;;;11.00;;
6145;SDS011;3104;50.348;7.620;2022-12-18T07:03:51;14.27;;;10.80;;
6145;SDS011;3104;50.348;7.620;2022-12-18T07:06:19;21.40;;;12.77;;
6145;SDS011;3104;50.348;7.620;2022-12-18T07:08:47;25.60;;;12.00;;
6145;SDS011;3104;50.348;7.620;2022-12-18T07:11:14;23.40;;;11.83;;
6145;SDS011;3104;50.348;7.620;2022-12-18T07:13:40;21.20;;;13.40;;
6145;SDS011;3104;50.348;7.620;2022-12-18T07:16:06;20.43;;;12.30;;
6145;SDS011;3104;50.348;7.620;2022-12-18T07:18:43;22.40;;;11.73;;
6145;SDS011;3104;50.348;7.620;2022-12-18T07:21:10;18.53;;;10.93;;
6145;SDS011;3104;50.348;7.620;2022-12-18T07:23:37;23.37;;;12.60;;
6145;SDS011;3104;50.348;7.620;2022-12-18T07:26:03;18.10;;;12.43;;
6145;SDS011;3104;50.348;7.620;2022-12-18T07:28:31;17.20;;;11.83;;
6145;SDS011;3104;50.348;7.620;2022-12-18T07:31:01;21.20;;;10.80;;
6145;SDS011;3104;50.348;7.620;2022-12-18T07:33:31;18.33;;;11.90;;
6145;SDS011;3104;50.348;7.620;2022-12-18T07:35:58;29.40;;;14.67;;
6145;SDS011;3104;50.348;7.620;2022-12-18T07:38:25;26.43;;;13.37;;
6145;SDS011;3104;50.348;7.620;2022-12-18T07:40:50;22.10;;;13.07;;
6145;SDS011;3104;50.348;7.620;2022-12-18T07:43:16;27.23;;;13.40;;
6145;SDS011;3104;50.348;7.620;2022-12-18T07:45:41;23.27;;;11.63;;
6145;SDS011;3104;50.348;7.620;2022-12-18T07:48:08;23.33;;;11.60;;
6145;SDS011;3104;50.348;7.620;2022-12-18T07:50:33;21.63;;;13.47;;
6145;SDS011;3104;50.348;7.620;2022-12-18T07:52:59;23.20;;;12.10;;
6145;SDS011;3104;50.348;7.620;2022-12-18T07:55:28;28.23;;;13.30;;
6145;SDS011;3104;50.348;7.620;2022-12-18T07:57:55;31.17;;;14.67;;
6145;SDS011;3104;50.348;7.620;2022-12-18T08:00:20;22.67;;;13.07;;
6145;SDS011;3104;50.348;7.620;2022-12-18T08:02:46;20.00;;;12.30;;
6145;SDS011;3104;50.348;7.620;2022-12-18T08:05:12;21.13;;;13.17;;
6145;SDS011;3104;50.348;7.620;2022-12-18T08:07:38;22.23;;;12.10;;
6145;SDS011;3104;50.348;7.620;2022-12-18T08:10:04;25.70;;;14.93;;
6145;SDS011;3104;50.348;7.620;2022-12-18T08:12:30;27.93;;;15.00;;
6145;SDS011;3104;50.348;7.620;2022-12-18T08:14:55;25.43;;;14.33;;
6145;SDS011;3104;50.348;7.620;2022-12-18T08:17:21;24.00;;;12.60;;
6145;SDS011;3104;50.348;7.620;2022-12-18T08:19:47;17.27;;;11.33;;
6145;SDS011;3104;50.348;7.620;2022-12-18T08:22:12;21.73;;;12.27;;
6145;SDS011;3104;50.348;7.620;2022-12-18T08:24:38;20.13;;;12.73;;
6145;SDS011;3104;50.348;7.620;2022-12-18T08:27:03;22.17;;;12.63;;
6145;SDS011;3104;50.348;7.620;2022-12-18T08:29:29;21.17;;;13.47;;
6145;SDS011;3104;50.348;7.620;2022-12-18T08:31:55;23.70;;;13.00;;
6145;SDS011;3104;50.348;7.620;2022-12-18T08:34:21;21.73;;;11.83;;
6145;SDS011;3104;50.348;7.620;2022-12-18T08:36:46;29.97;;;14.53;;
6145;SDS011;3104;50.348;7.620;2022-12-18T08:39:12;23.20;;;11.50;;
6145;SDS011;3104;50.348;7.620;2022-12-18T08:41:37;27.53;;;13.63;;
6145;SDS011;3104;50.348;7.620;2022-12-18T08:44:03;19.97;;;13.27;;
6145;SDS011;3104;50.348;7.620;2022-12-18T08:46:47;27.17;;;14.27;;
6145;SDS011;3104;50.348;7.620;2022-12-18T08:49:13;19.77;;;11.67;;
6145;SDS011;3104;50.348;7.620;2022-12-18T08:51:39;27.00;;;13.20;;
6145;SDS011;3104;50.348;7.620;2022-12-18T08:54:04;24.37;;;13.17;;
6145;SDS011;3104;50.348;7.620;2022-12-18T08:56:30;24.07;;;14.57;;
6145;SDS011;3104;50.348;7.620;2022-12-18T08:58:56;22.63;;;15.37;;
6145;SDS011;3104;50.348;7.620;2022-12-18T09:01:22;21.60;;;12.50;;
6145;SDS011;3104;50.348;7.620;2022-12-18T09:03:49;25.73;;;14.57;;
6145;SDS011;3104;50.348;7.620;2022-12-18T09:06:16;23.93;;;15.03;;
6145;SDS011;3104;50.348;7.620;2022-12-18T09:08:43;27.60;;;15.73;;
6145;SDS011;3104;50.348;7.620;2022-12-18T09:11:14;29.23;;;16.80;;
6145;SDS011;3104;50.348;7.620;2022-12-18T09:13:44;26.03;;;15.37;;
6145;SDS011;3104;50.348;7.620;2022-12-18T09:16:09;36.07;;;20.70;;
6145;SDS011;3104;50.348;7.620;2022-12-18T09:18:35;33.70;;;18.47;;
6145;SDS011;3104;50.348;7.620;2022-12-18T09:21:06;33.90;;;18.60;;
6145;SDS011;3104;50.348;7.620;2022-12-18T09:23:33;32.13;;;18.70;;
6145;SDS011;3104;50.348;7.620;2022-12-18T09:25:59;25.77;;;16.10;;
6145;SDS011;3104;50.348;7.620;2022-12-18T09:28:25;30.83;;;18.13;;
6145;SDS011;3104;50.348;7.620;2022-12-18T09:30:52;26.97;;;18.17;;
6145;SDS011;3104;50.348;7.620;2022-12-18T09:33:17;23.60;;;15.83;;
6145;SDS011;3104;50.348;7.620;2022-12-18T09:35:44;26.50;;;17.00;;
6145;SDS011;3104;50.348;7.620;2022-12-18T09:38:14;22.47;;;15.73;;
6145;SDS011;3104;50.348;7.620;2022-12-18T09:40:42;33.83;;;19.03;;
6145;SDS011;3104;50.348;7.620;2022-12-18T09:46:00;33.67;;;18.73;;
6145;SDS011;3104;50.348;7.620;2022-12-18T09:48:38;26.43;;;15.03;;
6145;SDS011;3104;50.348;7.620;2022-12-18T09:51:14;27.43;;;16.17;;
6145;SDS011;3104;50.348;7.620;2022-12-18T09:53:50;30.70;;;18.20;;
6145;SDS011;3104;50.348;7.620;2022-12-18T09:56:20;25.23;;;17.57;;
6145;SDS011;3104;50.348;7.620;2022-12-18T09:58:57;31.17;;;18.10;;
6145;SDS011;3104;50.348;7.620;2022-12-18T10:01:25;20.40;;;14.40;;
6145;SDS011;3104;50.348;7.620;2022-12-18T10:03:53;27.27;;;15.27;;
6145;SDS011;3104;50.348;7.620;2022-12-18T10:12:02;17.63;;;12.20;;
6145;SDS011;3104;50.348;7.620;2022-12-18T10:14:32;21.03;;;12.40;;
6145;SDS011;3104;50.348;7.620;2022-12-18T10:17:02;21.83;;;13.90;;
6145;SDS011;3104;50.348;7.620;2022-12-18T10:19:51;19.47;;;12.63;;
6145;SDS011;3104;50.348;7.620;2022-12-18T10:22:31;18.23;;;11.90;;
6145;SDS011;3104;50.348;7.620;2022-12-18T10:28:03;22.60;;;14.80;;
6145;SDS011;3104;50.348;7.620;2022-12-18T10:30:36;17.87;;;13.20;;
6145;SDS011;3104;50.348;7.620;2022-12-18T10:33:04;16.93;;;11.63;;
6145;SDS011;3104;50.348;7.620;2022-12-18T10:35:30;20.43;;;12.87;;
6145;SDS011;3104;50.348;7.620;2022-12-18T10:38:30;21.87;;;12.90;;
6145;SDS011;3104;50.348;7.620;2022-12-18T10:40:56;20.30;;;12.90;;
6145;SDS011;3104;50.348;7.620;2022-12-18T10:43:39;23.97;;;16.10;;
6145;SDS011;3104;50.348;7.620;2022-12-18T10:48:35;19.30;;;12.70;;
6145;SDS011;3104;50.348;7.620;2022-12-18T10:51:01;17.43;;;11.40;;
6145;SDS011;3104;50.348;7.620;2022-12-18T10:53:29;19.53;;;12.67;;
6145;SDS011;3104;50.348;7.620;2022-12-18T10:55:57;20.57;;;13.17;;
6145;SDS011;3104;50.348;7.620;2022-12-18T10:58:33;18.40;;;12.80;;
6145;SDS011;3104;50.348;7.620;2022-12-18T11:03:41;27.00;;;14.10;;
6145;SDS011;3104;50.348;7.620;2022-12-18T11:06:16;21.00;;;13.00;;
6145;SDS011;3104;50.348;7.620;2022-12-18T11:08:45;16.20;;;12.60;;
6145;SDS011;3104;50.348;7.620;2022-12-18T11:11:23;20.33;;;13.37;;
6145;SDS011;3104;50.348;7.620;2022-12-18T11:16:51;19.63;;;13.00;;
6145;SDS011;3104;50.348;7.620;2022-12-18T11:19:35;18.63;;;12.20;;
6145;SDS011;3104;50.348;7.620;2022-12-18T11:25:19;20.33;;;13.23;;
6145;SDS011;3104;50.348;7.620;2022-12-18T11:27:40;20.53;;;14.20;;
6145;SDS011;3104;50.348;7.620;2022-12-18T11:30:33;17.93;;;11.73;;
6145;SDS011;3104;50.348;7.620;2022-12-18T11:33:09;17.87;;;12.87;;
6145;SDS011;3104;50.348;7.620;2022-12-18T11:41:15;24.40;;;14.13;;
6145;SDS011;3104;50.348;7.620;2022-12-18T11:43:54;25.63;;;15.50;;
6145;SDS011;3104;50.348;7.620;2022-12-18T11:46:32;23.03;;;14.00;;
6145;SDS011;3104;50.348;7.620;2022-12-18T11:49:12;23.73;;;15.37;;
6145;SDS011;3104;50.348;7.620;2022-12-18T11:54:14;21.77;;;15.07;;
6145;SDS011;3104;50.348;7.620;2022-12-18T11:56:55;23.30;;;14.37;;
6145;SDS011;3104;50.348;7.620;2022-12-18T12:02:39;22.50;;;14.77;;
6145;SDS011;3104;50.348;7.620;2022-12-18T12:08:30;26.43;;;17.50;;
6145;SDS011;3104;50.348;7.620;2022-12-18T12:16:50;30.53;;;16.23;;
6145;SDS011;3104;50.348;7.620;2022-12-18T12:19:27;23.10;;;15.53;;
6145;SDS011;3104;50.348;7.620;2022-12-18T12:22:40;23.60;;;16.77;;
6145;SDS011;3104;50.348;7.620;2022-12-18T12:30:07;19.60;;;14.20;;
6145;SDS011;3104;50.348;7.620;2022-12-18T12:32:49;22.43;;;13.83;;
6145;SDS011;3104;50.348;7.620;2022-12-18T12:38:31;24.33;;;16.80;;
6145;SDS011;3104;50.348;7.620;2022-12-18T12:41:03;27.53;;;17.03;;
6145;SDS011;3104;50.348;7.620;2022-12-18T12:43:51;28.23;;;15.03;;
6145;SDS011;3104;50.348;7.620;2022-12-18T12:46:20;22.87;;;13.57;;
6145;SDS011;3104;50.348;7.620;2022-12-18T12:49:01;27.80;;;19.90;;
6145;SDS011;3104;50.348;7.620;2022-12-18T12:51:34;25.73;;;15.60;;
6145;SDS011;3104;50.348;7.620;2022-12-18T12:54:03;23.40;;;17.17;;
6145;SDS011;3104;50.348;7.620;2022-12-18T12:56:40;24.90;;;15.57;;
6145;SDS011;3104;50.348;7.620;2022-12-18T12:59:22;28.63;;;17.23;;
6145;SDS011;3104;50.348;7.620;2022-12-18T13:01:58;27.00;;;17.27;;
6145;SDS011;3104;50.348;7.620;2022-12-18T13:07:15;22.37;;;15.50;;
6145;SDS011;3104;50.348;7.620;2022-12-18T13:20:36;25.00;;;15.63;;
6145;SDS011;3104;50.348;7.620;2022-12-18T13:25:49;24.07;;;14.80;;
6145;SDS011;3104;50.348;7.620;2022-12-18T13:28:18;23.10;;;15.07;;
6145;SDS011;3104;50.348;7.620;2022-12-18T13:31:06;22.57;;;13.70;;
6145;SDS011;3104;50.348;7.620;2022-12-18T13:36:01;27.10;;;15.70;;
6145;SDS011;3104;50.348;7.620;2022-12-18T13:38:34;26.37;;;14.67;;
6145;SDS011;3104;50.348;7.620;2022-12-18T13:41:02;22.07;;;15.60;;
6145;SDS011;3104;50.348;7.620;2022-12-18T13:43:52;23.00;;;15.07;;
6145;SDS011;3104;50.348;7.620;2022-12-18T13:51:42;25.07;;;16.07;;
6145;SDS011;3104;50.348;7.620;2022-12-18T13:56:55;28.67;;;18.03;;
6145;SDS011;3104;50.348;7.620;2022-12-18T13:59:22;24.60;;;15.20;;
6145;SDS011;3104;50.348;7.620;2022-12-18T14:01:58;25.37;;;14.20;;
6145;SDS011;3104;50.348;7.620;2022-12-18T14:04:32;25.27;;;15.97;;
6145;SDS011;3104;50.348;7.620;2022-12-18T14:07:03;27.40;;;16.13;;
6145;SDS011;3104;50.348;7.620;2022-12-18T14:09:36;27.40;;;16.90;;
6145;SDS011;3104;50.348;7.620;2022-12-18T14:12:05;26.13;;;16.73;;
6145;SDS011;3104;50.348;7.620;2022-12-18T14:14:49;23.60;;;16.03;;
6145;SDS011;3104;50.348;7.620;2022-12-18T14:17:17;27.33;;;16.90;;
6145;SDS011;3104;50.348;7.620;2022-12-18T14:19:44;26.60;;;18.30;;
6145;SDS011;3104;50.348;7.620;2022-12-18T14:22:16;22.60;;;17.30;;
6145;SDS011;3104;50.348;7.620;2022-12-18T14:24:47;23.87;;;15.57;;
6145;SDS011;3104;50.348;7.620;2022-12-18T14:27:37;23.63;;;16.30;;
6145;SDS011;3104;50.348;7.620;2022-12-18T14:35:54;34.53;;;16.87;;
6145;SDS011;3104;50.348;7.620;2022-12-18T14:38:32;27.53;;;17.07;;
6145;SDS011;3104;50.348;7.620;2022-12-18T14:41:06;26.03;;;15.63;;
6145;SDS011;3104;50.348;7.620;2022-12-18T14:43:37;23.97;;;16.67;;
6145;SDS011;3104;50.348;7.620;2022-12-18T14:48:58;31.37;;;17.53;;
6145;SDS011;3104;50.348;7.620;2022-12-18T14:51:27;32.97;;;16.57;;
6145;SDS011;3104;50.348;7.620;2022-12-18T14:53:56;37.00;;;21.80;;
6145;SDS011;3104;50.348;7.620;2022-12-18T15:01:29;40.67;;;25.37;;
6145;SDS011;3104;50.348;7.620;2022-12-18T15:04:03;63.27;;;34.13;;
6145;SDS011;3104;50.348;7.620;2022-12-18T15:06:34;25.93;;;16.90;;
6145;SDS011;3104;50.348;7.620;2022-12-18T15:09:21;24.27;;;18.67;;
6145;SDS011;3104;50.348;7.620;2022-12-18T15:11:49;29.13;;;16.20;;
6145;SDS011;3104;50.348;7.620;2022-12-18T15:14:31;25.77;;;17.80;;
6145;SDS011;3104;50.348;7.620;2022-12-18T15:17:01;28.17;;;19.20;;
6145;SDS011;3104;50.348;7.620;2022-12-18T15:19:44;30.27;;;16.03;;
6145;SDS011;3104;50.348;7.620;2022-12-18T15:22:30;37.00;;;20.63;;
6145;SDS011;3104;50.348;7.620;2022-12-18T15:24:59;31.40;;;17.13;;
6145;SDS011;3104;50.348;7.620;2022-12-18T15:30:11;27.60;;;17.80;;
6145;SDS011;3104;50.348;7.620;2022-12-18T15:32:43;30.50;;;17.97;;
6145;SDS011;3104;50.348;7.620;2022-12-18T15:35:21;32.87;;;18.63;;
6145;SDS011;3104;50.348;7.620;2022-12-18T15:37:48;26.93;;;16.00;;
6145;SDS011;3104;50.348;7.620;2022-12-18T15:40:16;30.43;;;17.50;;
6145;SDS011;3104;50.348;7.620;2022-12-18T15:42:45;38.07;;;20.47;;
6145;SDS011;3104;50.348;7.620;2022-12-18T15:45:31;31.47;;;19.07;;
6145;SDS011;3104;50.348;7.620;2022-12-18T15:47:56;29.33;;;18.30;;
6145;SDS011;3104;50.348;7.620;2022-12-18T15:50:22;28.80;;;19.53;;
6145;SDS011;3104;50.348;7.620;2022-12-18T15:52:48;30.00;;;18.27;;
6145;SDS011;3104;50.348;7.620;2022-12-18T15:55:17;27.40;;;18.37;;
6145;SDS011;3104;50.348;7.620;2022-12-18T15:58:06;34.63;;;18.87;;
6145;SDS011;3104;50.348;7.620;2022-12-18T16:00:33;37.50;;;21.03;;
6145;SDS011;3104;50.348;7.620;2022-12-18T16:03:00;25.87;;;15.87;;
6145;SDS011;3104;50.348;7.620;2022-12-18T16:05:26;30.60;;;19.80;;
6145;SDS011;3104;50.348;7.620;2022-12-18T16:07:52;34.60;;;20.43;;
6145;SDS011;3104;50.348;7.620;2022-12-18T16:10:18;44.03;;;24.77;;
6145;SDS011;3104;50.348;7.620;2022-12-18T16:12:44;41.10;;;23.13;;
6145;SDS011;3104;50.348;7.620;2022-12-18T16:15:12;32.73;;;20.37;;
6145;SDS011;3104;50.348;7.620;2022-12-18T16:17:40;37.33;;;22.20;;
6145;SDS011;3104;50.348;7.620;2022-12-18T16:20:17;28.90;;;19.53;;
6145;SDS011;3104;50.348;7.620;2022-12-18T16:22:45;36.53;;;19.53;;
6145;SDS011;3104;50.348;7.620;2022-12-18T16:25:22;31.00;;;19.63;;
6145;SDS011;3104;50.348;7.620;2022-12-18T16:27:50;29.03;;;17.43;;
6145;SDS011;3104;50.348;7.620;2022-12-18T16:30:21;31.20;;;16.87;;
6145;SDS011;3104;50.348;7.620;2022-12-18T16:32:52;34.90;;;19.03;;
6145;SDS011;3104;50.348;7.620;2022-12-18T16:35:19;34.53;;;20.63;;
6145;SDS011;3104;50.348;7.620;2022-12-18T16:37:44;33.37;;;19.27;;
6145;SDS011;3104;50.348;7.620;2022-12-18T16:40:11;45.83;;;24.27;;
6145;SDS011;3104;50.348;7.620;2022-12-18T16:42:38;40.27;;;22.37;;
6145;SDS011;3104;50.348;7.620;2022-12-18T16:45:05;40.03;;;22.30;;
6145;SDS011;3104;50.348;7.620;2022-12-18T16:47:32;38.10;;;21.47;;
6145;SDS011;3104;50.348;7.620;2022-12-18T16:49:58;42.00;;;23.33;;
6145;SDS011;3104;50.348;7.620;2022-12-18T16:52:24;33.33;;;19.40;;
6145;SDS011;3104;50.348;7.620;2022-12-18T16:54:50;33.30;;;19.83;;
6145;SDS011;3104;50.348;7.620;2022-12-18T16:57:17;31.13;;;18.40;;
6145;SDS011;3104;50.348;7.620;2022-12-18T16:59:44;33.67;;;20.17;;